sensor_id;sensor_type;location;lat;lon;timestamp;temperature;humidity
13892;DHT22;7016;48.172;8.058;2023-06-24T00:00:58;16.40;99.90
13892;DHT22;7016;48.172;8.058;2023-06-24T00:03:44;16.40;99.90
13892;DHT22;7016;48.172;8.058;2023-06-24T00:06:32;16.30;99.90
13892;DHT22;7016;48.172;8.058;2023-06-24T00:09:19;16.40;99.90
13892;DHT22;7016;48.172;8.058;2023-06-24T00:12:05;16.30;99.90
13892;DHT22;7016;48.172;8.058;2023-06-24T00:14:52;16.30;99.90
13892;DHT22;7016;48.172;8.058;2023-06-24T00:17:38;16.20;99.90
13892;DHT22;7016;48.172;8.058;2023-06-24T00:20:25;16.40;99.90
13892;DHT22;7016;48.172;8.058;2023-06-24T00:23:17;16.30;99.90
13892;DHT22;7016;48.172;8.058;2023-06-24T00:26:04;16.30;99.90
13892;DHT22;7016;48.172;8.058;2023-06-24T00:28:51;16.10;99.90
13892;DHT22;7016;48.172;8.058;2023-06-24T00:31:37;16.10;99.90
13892;DHT22;7016;48.172;8.058;2023-06-24T00:34:23;16.10;99.90
13892;DHT22;7016;48.172;8.058;2023-06-24T00:37:10;16.10;99.90
13892;DHT22;7016;48.172;8.058;2023-06-24T00:39:56;16.20;99.90
13892;DHT22;7016;48.172;8.058;2023-06-24T00:42:44;16.10;99.90
13892;DHT22;7016;48.172;8.058;2023-06-24T00:45:32;16.10;99.90
13892;DHT22;7016;48.172;8.058;2023-06-24T00:48:18;16.20;99.90
13892;DHT22;7016;48.172;8.058;2023-06-24T00:51:04;16.30;99.90
13892;DHT22;7016;48.172;8.058;2023-06-24T00:53:51;16.10;99.90
13892;DHT22;7016;48.172;8.058;2023-06-24T00:56:37;16.10;99.90
13892;DHT22;7016;48.172;8.058;2023-06-24T00:59:28;15.80;99.90
13892;DHT22;7016;48.172;8.058;2023-06-24T01:02:16;15.80;99.90
13892;DHT22;7016;48.172;8.058;2023-06-24T01:05:02;15.80;99.90
13892;DHT22;7016;48.172;8.058;2023-06-24T01:07:49;15.80;99.90
13892;DHT22;7016;48.172;8.058;2023-06-24T01:10:42;15.60;99.90
13892;DHT22;7016;48.172;8.058;2023-06-24T01:13:28;15.60;99.90
13892;DHT22;7016;48.172;8.058;2023-06-24T01:20:10;15.80;99.90
13892;DHT22;7016;48.172;8.058;2023-06-24T01:23:02;15.70;99.90
13892;DHT22;7016;48.172;8.058;2023-06-24T01:26:19;15.70;99.90
13892;DHT22;7016;48.172;8.058;2023-06-24T01:35:12;15.60;99.90
13892;DHT22;7016;48.172;8.058;2023-06-24T01:38:08;15.50;99.90
13892;DHT22;7016;48.172;8.058;2023-06-24T01:40:56;15.50;99.90
13892;DHT22;7016;48.172;8.058;2023-06-24T01:43:43;15.50;99.90
13892;DHT22;7016;48.172;8.058;2023-06-24T01:46:30;15.40;99.90
13892;DHT22;7016;48.172;8.058;2023-06-24T01:49:17;15.40;99.90
13892;DHT22;7016;48.172;8.058;2023-06-24T01:52:07;15.40;99.90
13892;DHT22;7016;48.172;8.058;2023-06-24T01:54:55;15.40;99.90
13892;DHT22;7016;48.172;8.058;2023-06-24T01:57:42;15.30;99.90
13892;DHT22;7016;48.172;8.058;2023-06-24T02:00:29;15.20;99.90
13892;DHT22;7016;48.172;8.058;2023-06-24T02:03:17;15.20;99.90
13892;DHT22;7016;48.172;8.058;2023-06-24T02:06:04;15.20;99.90
13892;DHT22;7016;48.172;8.058;2023-06-24T02:08:52;15.20;99.90
13892;DHT22;7016;48.172;8.058;2023-06-24T02:11:39;15.20;99.90
13892;DHT22;7016;48.172;8.058;2023-06-24T02:14:28;15.20;99.90
13892;DHT22;7016;48.172;8.058;2023-06-24T02:17:14;15.10;99.90
13892;DHT22;7016;48.172;8.058;2023-06-24T02:20:04;15.10;99.90
13892;DHT22;7016;48.172;8.058;2023-06-24T02:22:52;15.00;99.90
13892;DHT22;7016;48.172;8.058;2023-06-24T02:25:39;15.00;99.90
13892;DHT22;7016;48.172;8.058;2023-06-24T02:28:26;15.00;99.90
13892;DHT22;7016;48.172;8.058;2023-06-24T02:31:14;14.90;99.90
13892;DHT22;7016;48.172;8.058;2023-06-24T02:34:01;14.90;99.90
13892;DHT22;7016;48.172;8.058;2023-06-24T02:36:47;15.00;99.90
13892;DHT22;7016;48.172;8.058;2023-06-24T02:39:33;14.90;99.90
13892;DHT22;7016;48.172;8.058;2023-06-24T02:42:19;14.80;99.90
13892;DHT22;7016;48.172;8.058;2023-06-24T02:45:06;14.80;99.90
13892;DHT22;7016;48.172;8.058;2023-06-24T02:47:53;14.70;99.90
13892;DHT22;7016;48.172;8.058;2023-06-24T02:50:41;14.90;99.90
13892;DHT22;7016;48.172;8.058;2023-06-24T02:53:30;15.00;99.90
13892;DHT22;7016;48.172;8.058;2023-06-24T02:56:17;14.80;99.90
13892;DHT22;7016;48.172;8.058;2023-06-24T02:59:07;14.70;99.90
13892;DHT22;7016;48.172;8.058;2023-06-24T03:01:54;14.70;99.90
13892;DHT22;7016;48.172;8.058;2023-06-24T03:04:40;14.80;99.90
13892;DHT22;7016;48.172;8.058;2023-06-24T03:07:27;14.70;99.90
13892;DHT22;7016;48.172;8.058;2023-06-24T03:10:13;14.50;99.90
13892;DHT22;7016;48.172;8.058;2023-06-24T03:13:01;14.60;99.90
13892;DHT22;7016;48.172;8.058;2023-06-24T03:15:47;14.40;99.90
13892;DHT22;7016;48.172;8.058;2023-06-24T03:18:33;14.60;99.90
13892;DHT22;7016;48.172;8.058;2023-06-24T03:21:19;14.50;99.90
13892;DHT22;7016;48.172;8.058;2023-06-24T03:24:05;14.60;99.90
13892;DHT22;7016;48.172;8.058;2023-06-24T03:26:52;14.70;99.90
13892;DHT22;7016;48.172;8.058;2023-06-24T03:29:42;14.80;99.90
13892;DHT22;7016;48.172;8.058;2023-06-24T03:32:28;14.80;99.90
13892;DHT22;7016;48.172;8.058;2023-06-24T03:35:15;14.60;99.90
13892;DHT22;7016;48.172;8.058;2023-06-24T03:38:01;14.60;99.90
13892;DHT22;7016;48.172;8.058;2023-06-24T03:40:47;14.50;99.90
13892;DHT22;7016;48.172;8.058;2023-06-24T03:43:34;14.40;99.90
13892;DHT22;7016;48.172;8.058;2023-06-24T03:46:20;14.30;99.90
13892;DHT22;7016;48.172;8.058;2023-06-24T03:49:06;14.30;99.90
13892;DHT22;7016;48.172;8.058;2023-06-24T03:51:53;14.30;99.90
13892;DHT22;7016;48.172;8.058;2023-06-24T03:54:39;14.30;99.90
13892;DHT22;7016;48.172;8.058;2023-06-24T03:57:26;14.30;99.90
13892;DHT22;7016;48.172;8.058;2023-06-24T04:00:12;14.30;99.90
13892;DHT22;7016;48.172;8.058;2023-06-24T04:03:02;14.40;99.90
13892;DHT22;7016;48.172;8.058;2023-06-24T04:05:48;14.30;99.90
13892;DHT22;7016;48.172;8.058;2023-06-24T04:08:34;14.30;99.90
13892;DHT22;7016;48.172;8.058;2023-06-24T04:11:20;14.30;99.90
13892;DHT22;7016;48.172;8.058;2023-06-24T04:14:06;14.40;99.90
13892;DHT22;7016;48.172;8.058;2023-06-24T04:16:55;14.40;99.90
13892;DHT22;7016;48.172;8.058;2023-06-24T04:19:44;14.50;99.90
13892;DHT22;7016;48.172;8.058;2023-06-24T04:22:30;14.50;99.90
13892;DHT22;7016;48.172;8.058;2023-06-24T04:25:17;14.50;99.90
13892;DHT22;7016;48.172;8.058;2023-06-24T04:28:03;14.50;99.90
13892;DHT22;7016;48.172;8.058;2023-06-24T04:30:51;14.40;99.90
13892;DHT22;7016;48.172;8.058;2023-06-24T04:33:37;14.40;99.90
13892;DHT22;7016;48.172;8.058;2023-06-24T04:36:23;14.40;99.90
13892;DHT22;7016;48.172;8.058;2023-06-24T04:39:10;14.40;99.90
13892;DHT22;7016;48.172;8.058;2023-06-24T04:41:56;14.40;99.90
13892;DHT22;7016;48.172;8.058;2023-06-24T04:44:43;14.40;99.90
13892;DHT22;7016;48.172;8.058;2023-06-24T04:47:29;14.50;99.90
13892;DHT22;7016;48.172;8.058;2023-06-24T04:50:15;14.50;99.90
13892;DHT22;7016;48.172;8.058;2023-06-24T04:53:02;14.50;99.90
13892;DHT22;7016;48.172;8.058;2023-06-24T04:55:48;14.50;99.90
13892;DHT22;7016;48.172;8.058;2023-06-24T04:58:34;14.50;99.90
13892;DHT22;7016;48.172;8.058;2023-06-24T05:01:21;14.50;99.90
13892;DHT22;7016;48.172;8.058;2023-06-24T05:04:07;14.50;99.90
13892;DHT22;7016;48.172;8.058;2023-06-24T05:06:53;14.60;99.90
13892;DHT22;7016;48.172;8.058;2023-06-24T05:09:40;14.70;99.90
13892;DHT22;7016;48.172;8.058;2023-06-24T05:12:26;14.70;99.90
13892;DHT22;7016;48.172;8.058;2023-06-24T05:15:12;14.70;99.90
13892;DHT22;7016;48.172;8.058;2023-06-24T05:17:58;14.80;99.90
13892;DHT22;7016;48.172;8.058;2023-06-24T05:20:44;14.80;99.90
13892;DHT22;7016;48.172;8.058;2023-06-24T05:23:31;14.80;99.90
13892;DHT22;7016;48.172;8.058;2023-06-24T05:26:17;14.90;99.90
13892;DHT22;7016;48.172;8.058;2023-06-24T05:29:03;14.90;99.90
13892;DHT22;7016;48.172;8.058;2023-06-24T05:31:49;14.80;99.90
13892;DHT22;7016;48.172;8.058;2023-06-24T05:34:35;15.00;99.90
13892;DHT22;7016;48.172;8.058;2023-06-24T05:37:21;15.10;99.90
13892;DHT22;7016;48.172;8.058;2023-06-24T05:40:08;15.30;99.90
13892;DHT22;7016;48.172;8.058;2023-06-24T05:42:55;15.50;99.90
13892;DHT22;7016;48.172;8.058;2023-06-24T05:45:41;15.60;99.90
13892;DHT22;7016;48.172;8.058;2023-06-24T05:48:27;15.80;99.90
13892;DHT22;7016;48.172;8.058;2023-06-24T05:51:13;16.40;99.90
13892;DHT22;7016;48.172;8.058;2023-06-24T05:54:00;16.50;99.90
13892;DHT22;7016;48.172;8.058;2023-06-24T05:56:46;17.00;99.90
13892;DHT22;7016;48.172;8.058;2023-06-24T05:59:33;17.20;99.90
13892;DHT22;7016;48.172;8.058;2023-06-24T06:02:19;17.50;99.90
13892;DHT22;7016;48.172;8.058;2023-06-24T06:05:05;17.70;99.90
13892;DHT22;7016;48.172;8.058;2023-06-24T06:07:52;17.80;99.90
13892;DHT22;7016;48.172;8.058;2023-06-24T06:10:39;18.00;99.90
13892;DHT22;7016;48.172;8.058;2023-06-24T06:13:25;18.10;99.90
13892;DHT22;7016;48.172;8.058;2023-06-24T06:16:11;18.30;99.90
13892;DHT22;7016;48.172;8.058;2023-06-24T06:18:58;18.30;99.90
13892;DHT22;7016;48.172;8.058;2023-06-24T06:21:44;18.50;99.90
13892;DHT22;7016;48.172;8.058;2023-06-24T06:24:30;18.70;99.90
13892;DHT22;7016;48.172;8.058;2023-06-24T06:27:16;18.80;99.90
13892;DHT22;7016;48.172;8.058;2023-06-24T06:30:04;19.00;99.90
13892;DHT22;7016;48.172;8.058;2023-06-24T06:32:50;19.00;99.90
13892;DHT22;7016;48.172;8.058;2023-06-24T06:35:36;19.10;99.90
13892;DHT22;7016;48.172;8.058;2023-06-24T06:38:22;19.30;99.90
13892;DHT22;7016;48.172;8.058;2023-06-24T06:41:09;19.50;99.90
13892;DHT22;7016;48.172;8.058;2023-06-24T06:43:55;19.60;99.90
13892;DHT22;7016;48.172;8.058;2023-06-24T06:46:41;19.70;99.90
13892;DHT22;7016;48.172;8.058;2023-06-24T06:49:27;19.80;99.90
13892;DHT22;7016;48.172;8.058;2023-06-24T06:52:14;19.90;99.90
13892;DHT22;7016;48.172;8.058;2023-06-24T06:55:00;20.00;99.90
13892;DHT22;7016;48.172;8.058;2023-06-24T06:57:46;20.20;99.90
13892;DHT22;7016;48.172;8.058;2023-06-24T07:00:32;20.40;99.90
13892;DHT22;7016;48.172;8.058;2023-06-24T07:03:18;20.40;99.90
13892;DHT22;7016;48.172;8.058;2023-06-24T07:06:05;20.60;99.90
13892;DHT22;7016;48.172;8.058;2023-06-24T07:08:51;20.60;99.90
13892;DHT22;7016;48.172;8.058;2023-06-24T07:11:37;20.70;99.90
13892;DHT22;7016;48.172;8.058;2023-06-24T07:14:23;20.90;99.90
13892;DHT22;7016;48.172;8.058;2023-06-24T07:17:09;20.80;99.90
13892;DHT22;7016;48.172;8.058;2023-06-24T07:19:55;20.90;99.90
13892;DHT22;7016;48.172;8.058;2023-06-24T07:22:42;20.90;99.90
13892;DHT22;7016;48.172;8.058;2023-06-24T07:25:28;20.90;99.90
13892;DHT22;7016;48.172;8.058;2023-06-24T07:28:14;21.00;99.90
13892;DHT22;7016;48.172;8.058;2023-06-24T07:31:00;21.10;99.90
13892;DHT22;7016;48.172;8.058;2023-06-24T07:33:46;21.20;99.90
13892;DHT22;7016;48.172;8.058;2023-06-24T07:36:33;21.20;99.90
13892;DHT22;7016;48.172;8.058;2023-06-24T07:39:19;21.40;99.90
13892;DHT22;7016;48.172;8.058;2023-06-24T07:42:05;21.30;99.90
13892;DHT22;7016;48.172;8.058;2023-06-24T07:44:51;21.40;99.90
13892;DHT22;7016;48.172;8.058;2023-06-24T07:47:37;21.50;99.90
13892;DHT22;7016;48.172;8.058;2023-06-24T07:50:24;21.70;99.90
13892;DHT22;7016;48.172;8.058;2023-06-24T07:53:10;21.80;99.90
13892;DHT22;7016;48.172;8.058;2023-06-24T07:55:56;21.90;99.90
13892;DHT22;7016;48.172;8.058;2023-06-24T07:58:42;22.00;99.90
13892;DHT22;7016;48.172;8.058;2023-06-24T08:01:28;22.10;99.90
13892;DHT22;7016;48.172;8.058;2023-06-24T08:04:15;22.10;99.90
13892;DHT22;7016;48.172;8.058;2023-06-24T08:07:03;22.20;99.90
13892;DHT22;7016;48.172;8.058;2023-06-24T08:09:49;22.30;99.90
13892;DHT22;7016;48.172;8.058;2023-06-24T08:12:35;21.60;99.90
13892;DHT22;7016;48.172;8.058;2023-06-24T08:15:22;22.50;99.90
13892;DHT22;7016;48.172;8.058;2023-06-24T08:18:08;22.50;99.90
13892;DHT22;7016;48.172;8.058;2023-06-24T08:20:58;22.60;99.90
13892;DHT22;7016;48.172;8.058;2023-06-24T08:23:48;22.70;99.90
13892;DHT22;7016;48.172;8.058;2023-06-24T08:26:36;22.70;99.90
13892;DHT22;7016;48.172;8.058;2023-06-24T08:29:22;22.90;99.90
13892;DHT22;7016;48.172;8.058;2023-06-24T08:32:08;23.10;99.90
13892;DHT22;7016;48.172;8.058;2023-06-24T08:34:54;23.00;99.60
13892;DHT22;7016;48.172;8.058;2023-06-24T08:37:41;23.10;99.90
13892;DHT22;7016;48.172;8.058;2023-06-24T08:40:27;23.20;98.80
13892;DHT22;7016;48.172;8.058;2023-06-24T08:43:14;23.30;99.70
13892;DHT22;7016;48.172;8.058;2023-06-24T08:46:01;23.50;98.40
13892;DHT22;7016;48.172;8.058;2023-06-24T08:48:48;23.50;97.40
13892;DHT22;7016;48.172;8.058;2023-06-24T08:51:39;23.50;96.80
13892;DHT22;7016;48.172;8.058;2023-06-24T08:54:26;23.50;98.00
13892;DHT22;7016;48.172;8.058;2023-06-24T08:57:13;23.70;97.30
13892;DHT22;7016;48.172;8.058;2023-06-24T09:00:01;23.80;97.10
13892;DHT22;7016;48.172;8.058;2023-06-24T09:02:49;23.80;96.60
13892;DHT22;7016;48.172;8.058;2023-06-24T09:05:35;23.80;95.90
13892;DHT22;7016;48.172;8.058;2023-06-24T09:08:21;24.00;95.70
13892;DHT22;7016;48.172;8.058;2023-06-24T09:11:08;24.00;93.60
13892;DHT22;7016;48.172;8.058;2023-06-24T09:13:58;24.00;95.70
13892;DHT22;7016;48.172;8.058;2023-06-24T09:16:56;24.20;94.60
13892;DHT22;7016;48.172;8.058;2023-06-24T09:19:42;24.20;92.80
13892;DHT22;7016;48.172;8.058;2023-06-24T09:22:29;24.20;92.60
13892;DHT22;7016;48.172;8.058;2023-06-24T09:25:17;24.20;92.70
13892;DHT22;7016;48.172;8.058;2023-06-24T09:28:04;24.30;93.40
13892;DHT22;7016;48.172;8.058;2023-06-24T09:31:04;24.30;92.40
13892;DHT22;7016;48.172;8.058;2023-06-24T09:33:51;24.30;93.40
13892;DHT22;7016;48.172;8.058;2023-06-24T09:36:42;24.50;92.60
13892;DHT22;7016;48.172;8.058;2023-06-24T09:39:38;24.70;92.80
13892;DHT22;7016;48.172;8.058;2023-06-24T09:42:25;24.70;92.60
13892;DHT22;7016;48.172;8.058;2023-06-24T09:45:12;24.70;92.50
13892;DHT22;7016;48.172;8.058;2023-06-24T09:47:58;24.70;92.70
13892;DHT22;7016;48.172;8.058;2023-06-24T09:50:45;24.60;93.30
13892;DHT22;7016;48.172;8.058;2023-06-24T09:53:33;24.70;92.80
13892;DHT22;7016;48.172;8.058;2023-06-24T09:56:20;24.80;93.00
13892;DHT22;7016;48.172;8.058;2023-06-24T09:59:07;24.80;92.10
13892;DHT22;7016;48.172;8.058;2023-06-24T10:01:53;24.80;92.50
13892;DHT22;7016;48.172;8.058;2023-06-24T10:04:41;24.70;91.80
13892;DHT22;7016;48.172;8.058;2023-06-24T10:07:28;24.70;90.60
13892;DHT22;7016;48.172;8.058;2023-06-24T10:10:14;24.90;90.40
13892;DHT22;7016;48.172;8.058;2023-06-24T10:13:01;24.90;90.90
13892;DHT22;7016;48.172;8.058;2023-06-24T10:15:48;25.00;90.80
13892;DHT22;7016;48.172;8.058;2023-06-24T10:18:36;25.10;90.60
13892;DHT22;7016;48.172;8.058;2023-06-24T10:21:22;25.10;89.00
13892;DHT22;7016;48.172;8.058;2023-06-24T10:24:34;25.10;89.90
13892;DHT22;7016;48.172;8.058;2023-06-24T10:27:22;25.20;89.70
13892;DHT22;7016;48.172;8.058;2023-06-24T10:30:09;25.30;90.60
13892;DHT22;7016;48.172;8.058;2023-06-24T10:33:10;25.30;87.40
13892;DHT22;7016;48.172;8.058;2023-06-24T10:35:56;25.20;86.40
13892;DHT22;7016;48.172;8.058;2023-06-24T10:38:42;25.20;86.60
13892;DHT22;7016;48.172;8.058;2023-06-24T10:41:41;25.20;85.00
13892;DHT22;7016;48.172;8.058;2023-06-24T10:44:27;25.30;86.80
13892;DHT22;7016;48.172;8.058;2023-06-24T10:47:13;25.40;87.50
13892;DHT22;7016;48.172;8.058;2023-06-24T10:49:59;25.40;82.20
13892;DHT22;7016;48.172;8.058;2023-06-24T10:52:47;25.30;83.20
13892;DHT22;7016;48.172;8.058;2023-06-24T10:55:35;25.40;83.50
13892;DHT22;7016;48.172;8.058;2023-06-24T10:58:22;25.40;82.70
13892;DHT22;7016;48.172;8.058;2023-06-24T11:01:09;25.50;83.20
13892;DHT22;7016;48.172;8.058;2023-06-24T11:03:55;25.60;83.40
13892;DHT22;7016;48.172;8.058;2023-06-24T11:06:41;25.60;83.20
13892;DHT22;7016;48.172;8.058;2023-06-24T11:09:28;25.50;80.10
13892;DHT22;7016;48.172;8.058;2023-06-24T11:12:14;25.50;81.00
13892;DHT22;7016;48.172;8.058;2023-06-24T11:15:05;25.60;79.60
13892;DHT22;7016;48.172;8.058;2023-06-24T11:17:51;25.60;83.40
13892;DHT22;7016;48.172;8.058;2023-06-24T11:20:38;25.60;82.70
13892;DHT22;7016;48.172;8.058;2023-06-24T11:23:25;25.70;80.70
13892;DHT22;7016;48.172;8.058;2023-06-24T11:26:11;25.70;79.20
13892;DHT22;7016;48.172;8.058;2023-06-24T11:28:57;25.80;81.00
13892;DHT22;7016;48.172;8.058;2023-06-24T11:31:45;25.80;78.30
13892;DHT22;7016;48.172;8.058;2023-06-24T11:34:31;25.80;78.70
13892;DHT22;7016;48.172;8.058;2023-06-24T11:37:18;25.90;80.90
13892;DHT22;7016;48.172;8.058;2023-06-24T11:40:06;25.90;77.20
13892;DHT22;7016;48.172;8.058;2023-06-24T11:42:53;25.90;79.30
13892;DHT22;7016;48.172;8.058;2023-06-24T11:45:39;25.90;77.40
13892;DHT22;7016;48.172;8.058;2023-06-24T11:48:29;26.10;80.40
13892;DHT22;7016;48.172;8.058;2023-06-24T11:51:15;26.10;75.10
13892;DHT22;7016;48.172;8.058;2023-06-24T11:54:03;26.20;78.10
13892;DHT22;7016;48.172;8.058;2023-06-24T11:56:53;26.20;78.70
13892;DHT22;7016;48.172;8.058;2023-06-24T11:59:39;26.10;75.20
13892;DHT22;7016;48.172;8.058;2023-06-24T12:02:25;26.00;76.00
13892;DHT22;7016;48.172;8.058;2023-06-24T12:05:13;25.60;75.00
13892;DHT22;7016;48.172;8.058;2023-06-24T12:08:11;26.20;78.10
13892;DHT22;7016;48.172;8.058;2023-06-24T12:10:57;26.30;78.00
13892;DHT22;7016;48.172;8.058;2023-06-24T12:13:43;26.30;76.90
13892;DHT22;7016;48.172;8.058;2023-06-24T12:16:30;26.20;74.90
13892;DHT22;7016;48.172;8.058;2023-06-24T12:19:16;26.20;75.10
13892;DHT22;7016;48.172;8.058;2023-06-24T12:22:02;26.20;75.20
13892;DHT22;7016;48.172;8.058;2023-06-24T12:24:48;26.30;77.90
13892;DHT22;7016;48.172;8.058;2023-06-24T12:27:35;26.30;76.50
13892;DHT22;7016;48.172;8.058;2023-06-24T12:30:21;26.40;75.00
13892;DHT22;7016;48.172;8.058;2023-06-24T12:33:08;26.40;74.80
13892;DHT22;7016;48.172;8.058;2023-06-24T12:35:54;26.30;76.10
13892;DHT22;7016;48.172;8.058;2023-06-24T12:38:40;26.40;76.40
13892;DHT22;7016;48.172;8.058;2023-06-24T12:41:27;26.40;74.70
13892;DHT22;7016;48.172;8.058;2023-06-24T12:44:14;26.40;71.50
13892;DHT22;7016;48.172;8.058;2023-06-24T12:47:00;26.40;74.40
13892;DHT22;7016;48.172;8.058;2023-06-24T12:49:46;26.40;75.70
13892;DHT22;7016;48.172;8.058;2023-06-24T12:52:33;26.50;77.60
13892;DHT22;7016;48.172;8.058;2023-06-24T12:55:20;26.60;75.90
13892;DHT22;7016;48.172;8.058;2023-06-24T12:58:06;26.60;72.30
13892;DHT22;7016;48.172;8.058;2023-06-24T13:00:52;26.50;75.30
13892;DHT22;7016;48.172;8.058;2023-06-24T13:03:39;26.60;74.30
13892;DHT22;7016;48.172;8.058;2023-06-24T13:06:25;26.50;72.20
13892;DHT22;7016;48.172;8.058;2023-06-24T13:09:11;26.70;76.20
13892;DHT22;7016;48.172;8.058;2023-06-24T13:11:58;26.70;76.90
13892;DHT22;7016;48.172;8.058;2023-06-24T13:14:44;26.70;72.50
13892;DHT22;7016;48.172;8.058;2023-06-24T13:17:31;26.70;72.40
13892;DHT22;7016;48.172;8.058;2023-06-24T13:20:17;26.70;72.90
13892;DHT22;7016;48.172;8.058;2023-06-24T13:23:03;26.70;74.20
13892;DHT22;7016;48.172;8.058;2023-06-24T13:25:49;26.70;71.70
13892;DHT22;7016;48.172;8.058;2023-06-24T13:28:35;26.70;70.20
13892;DHT22;7016;48.172;8.058;2023-06-24T13:31:21;26.70;71.40
13892;DHT22;7016;48.172;8.058;2023-06-24T13:34:08;26.70;69.90
13892;DHT22;7016;48.172;8.058;2023-06-24T13:36:54;26.70;68.80
13892;DHT22;7016;48.172;8.058;2023-06-24T13:39:40;26.70;67.90
13892;DHT22;7016;48.172;8.058;2023-06-24T13:42:27;26.70;70.00
13892;DHT22;7016;48.172;8.058;2023-06-24T13:45:14;26.60;67.90
13892;DHT22;7016;48.172;8.058;2023-06-24T13:48:01;26.60;67.70
13892;DHT22;7016;48.172;8.058;2023-06-24T13:50:47;26.70;68.70
13892;DHT22;7016;48.172;8.058;2023-06-24T13:53:33;26.80;68.70
13892;DHT22;7016;48.172;8.058;2023-06-24T13:56:20;26.80;68.80
13892;DHT22;7016;48.172;8.058;2023-06-24T13:59:06;26.80;66.40
13892;DHT22;7016;48.172;8.058;2023-06-24T14:01:52;26.80;66.90
13892;DHT22;7016;48.172;8.058;2023-06-24T14:04:39;26.90;70.00
13892;DHT22;7016;48.172;8.058;2023-06-24T14:07:26;27.10;68.30
13892;DHT22;7016;48.172;8.058;2023-06-24T14:10:12;27.10;68.60
13892;DHT22;7016;48.172;8.058;2023-06-24T14:12:59;27.00;69.50
13892;DHT22;7016;48.172;8.058;2023-06-24T14:15:45;27.00;69.00
13892;DHT22;7016;48.172;8.058;2023-06-24T14:18:31;27.00;67.10
13892;DHT22;7016;48.172;8.058;2023-06-24T14:21:18;26.90;70.60
13892;DHT22;7016;48.172;8.058;2023-06-24T14:24:05;27.00;69.20
13892;DHT22;7016;48.172;8.058;2023-06-24T14:26:53;27.00;68.40
13892;DHT22;7016;48.172;8.058;2023-06-24T14:29:39;26.90;69.40
13892;DHT22;7016;48.172;8.058;2023-06-24T14:32:25;26.90;70.00
13892;DHT22;7016;48.172;8.058;2023-06-24T14:35:11;27.00;70.80
13892;DHT22;7016;48.172;8.058;2023-06-24T14:37:57;27.00;68.80
13892;DHT22;7016;48.172;8.058;2023-06-24T14:40:43;26.90;67.20
13892;DHT22;7016;48.172;8.058;2023-06-24T14:43:30;26.90;65.20
13892;DHT22;7016;48.172;8.058;2023-06-24T14:46:17;26.80;67.10
13892;DHT22;7016;48.172;8.058;2023-06-24T14:49:03;26.90;69.40
13892;DHT22;7016;48.172;8.058;2023-06-24T14:51:51;26.90;67.40
13892;DHT22;7016;48.172;8.058;2023-06-24T14:54:37;27.00;66.80
13892;DHT22;7016;48.172;8.058;2023-06-24T14:57:23;27.10;70.30
13892;DHT22;7016;48.172;8.058;2023-06-24T15:00:11;27.00;65.70
13892;DHT22;7016;48.172;8.058;2023-06-24T15:02:58;27.00;67.60
13892;DHT22;7016;48.172;8.058;2023-06-24T15:05:44;26.90;65.10
13892;DHT22;7016;48.172;8.058;2023-06-24T15:08:30;26.90;66.40
13892;DHT22;7016;48.172;8.058;2023-06-24T15:11:17;26.80;63.30
13892;DHT22;7016;48.172;8.058;2023-06-24T15:14:03;26.80;65.30
13892;DHT22;7016;48.172;8.058;2023-06-24T15:16:49;26.80;65.10
13892;DHT22;7016;48.172;8.058;2023-06-24T15:19:36;26.90;64.40
13892;DHT22;7016;48.172;8.058;2023-06-24T15:22:22;26.90;65.50
13892;DHT22;7016;48.172;8.058;2023-06-24T15:25:09;26.90;65.90
13892;DHT22;7016;48.172;8.058;2023-06-24T15:27:57;26.90;65.30
13892;DHT22;7016;48.172;8.058;2023-06-24T15:30:43;26.90;64.40
13892;DHT22;7016;48.172;8.058;2023-06-24T15:33:29;26.90;65.80
13892;DHT22;7016;48.172;8.058;2023-06-24T15:36:16;26.90;63.20
13892;DHT22;7016;48.172;8.058;2023-06-24T15:39:02;26.90;65.20
13892;DHT22;7016;48.172;8.058;2023-06-24T15:41:49;27.00;63.90
13892;DHT22;7016;48.172;8.058;2023-06-24T15:44:38;27.10;65.10
13892;DHT22;7016;48.172;8.058;2023-06-24T15:47:24;27.20;64.50
13892;DHT22;7016;48.172;8.058;2023-06-24T15:50:18;27.00;62.50
13892;DHT22;7016;48.172;8.058;2023-06-24T15:53:04;27.00;61.10
13892;DHT22;7016;48.172;8.058;2023-06-24T15:55:51;27.00;64.30
13892;DHT22;7016;48.172;8.058;2023-06-24T15:58:37;27.00;62.40
13892;DHT22;7016;48.172;8.058;2023-06-24T16:01:23;26.90;60.00
13892;DHT22;7016;48.172;8.058;2023-06-24T16:04:09;26.90;62.00
13892;DHT22;7016;48.172;8.058;2023-06-24T16:06:55;27.00;62.50
13892;DHT22;7016;48.172;8.058;2023-06-24T16:09:41;27.00;61.20
13892;DHT22;7016;48.172;8.058;2023-06-24T16:12:28;27.00;62.60
13892;DHT22;7016;48.172;8.058;2023-06-24T16:15:14;27.00;65.20
13892;DHT22;7016;48.172;8.058;2023-06-24T16:18:00;27.00;64.00
13892;DHT22;7016;48.172;8.058;2023-06-24T16:20:46;27.10;63.10
13892;DHT22;7016;48.172;8.058;2023-06-24T16:23:32;27.10;64.20
13892;DHT22;7016;48.172;8.058;2023-06-24T16:26:18;27.10;63.80
13892;DHT22;7016;48.172;8.058;2023-06-24T16:31:51;27.00;64.20
13892;DHT22;7016;48.172;8.058;2023-06-24T16:34:37;27.00;62.70
13892;DHT22;7016;48.172;8.058;2023-06-24T16:37:24;27.00;63.80
13892;DHT22;7016;48.172;8.058;2023-06-24T16:40:10;26.80;59.70
13892;DHT22;7016;48.172;8.058;2023-06-24T16:42:56;26.90;61.00
13892;DHT22;7016;48.172;8.058;2023-06-24T16:45:42;26.90;62.10
13892;DHT22;7016;48.172;8.058;2023-06-24T16:48:28;26.90;62.80
13892;DHT22;7016;48.172;8.058;2023-06-24T16:51:15;26.90;59.90
13892;DHT22;7016;48.172;8.058;2023-06-24T16:54:02;26.80;61.30
13892;DHT22;7016;48.172;8.058;2023-06-24T16:56:48;26.90;61.20
13892;DHT22;7016;48.172;8.058;2023-06-24T16:59:34;26.80;62.50
13892;DHT22;7016;48.172;8.058;2023-06-24T17:02:21;26.80;63.20
13892;DHT22;7016;48.172;8.058;2023-06-24T17:05:07;26.80;62.70
13892;DHT22;7016;48.172;8.058;2023-06-24T17:07:53;26.90;61.60
13892;DHT22;7016;48.172;8.058;2023-06-24T17:10:39;26.80;61.80
13892;DHT22;7016;48.172;8.058;2023-06-24T17:13:26;26.70;62.20
13892;DHT22;7016;48.172;8.058;2023-06-24T17:16:12;26.70;61.90
13892;DHT22;7016;48.172;8.058;2023-06-24T17:18:58;26.70;62.80
13892;DHT22;7016;48.172;8.058;2023-06-24T17:21:44;26.70;62.10
13892;DHT22;7016;48.172;8.058;2023-06-24T17:24:30;26.60;61.10
13892;DHT22;7016;48.172;8.058;2023-06-24T17:27:17;26.60;60.70
13892;DHT22;7016;48.172;8.058;2023-06-24T17:30:03;26.70;62.40
13892;DHT22;7016;48.172;8.058;2023-06-24T17:32:49;26.70;63.80
13892;DHT22;7016;48.172;8.058;2023-06-24T17:35:36;26.60;60.40
13892;DHT22;7016;48.172;8.058;2023-06-24T17:38:22;26.50;61.60
13892;DHT22;7016;48.172;8.058;2023-06-24T17:41:08;26.50;61.70
13892;DHT22;7016;48.172;8.058;2023-06-24T17:43:55;26.60;62.40
13892;DHT22;7016;48.172;8.058;2023-06-24T17:46:41;26.60;63.00
13892;DHT22;7016;48.172;8.058;2023-06-24T17:49:27;26.50;63.10
13892;DHT22;7016;48.172;8.058;2023-06-24T17:52:13;26.50;64.10
13892;DHT22;7016;48.172;8.058;2023-06-24T17:54:59;26.50;64.40
13892;DHT22;7016;48.172;8.058;2023-06-24T17:57:47;26.50;68.80
13892;DHT22;7016;48.172;8.058;2023-06-24T18:00:33;26.50;64.20
13892;DHT22;7016;48.172;8.058;2023-06-24T18:03:22;26.40;65.20